createdAt,value
2019-03-31T00:00:13.077Z,85.70
2019-03-31T00:02:43.833Z,85.40
2019-03-31T00:05:14.509Z,85.30
2019-03-31T00:07:45.288Z,86.40
2019-03-31T00:10:15.850Z,85.40
2019-03-31T00:12:46.512Z,85.30
2019-03-31T00:15:17.239Z,86.80
2019-03-31T00:17:47.957Z,87.10
2019-03-31T00:20:18.774Z,87.20
2019-03-31T00:22:49.697Z,86.30
2019-03-31T00:25:20.406Z,85.30
2019-03-31T00:27:51.163Z,85.60
2019-03-31T00:30:21.642Z,86.00
2019-03-31T00:32:52.348Z,85.10
2019-03-31T00:35:23.177Z,84.70
2019-03-31T00:37:54.000Z,85.10
2019-03-31T00:40:24.514Z,85.70
2019-03-31T00:42:55.258Z,86.30
2019-03-31T00:45:25.946Z,86.50
2019-03-31T00:47:56.781Z,87.00
2019-03-31T00:50:27.605Z,85.00
2019-03-31T00:52:58.375Z,85.20
2019-03-31T00:55:28.987Z,85.70
2019-03-31T00:57:59.852Z,85.60
2019-03-31T01:00:48.003Z,85.30
2019-03-31T01:03:19.265Z,85.30
2019-03-31T01:05:49.951Z,82.40
2019-03-31T01:08:20.569Z,84.00
2019-03-31T01:10:51.250Z,86.70
2019-03-31T01:13:21.945Z,84.60
2019-03-31T01:15:52.866Z,83.00
2019-03-31T01:18:23.836Z,84.60
2019-03-31T01:20:54.555Z,84.30
2019-03-31T01:23:25.322Z,84.70
2019-03-31T01:25:56.030Z,84.70
2019-03-31T01:28:26.819Z,84.40
2019-03-31T01:30:57.574Z,84.70
2019-03-31T01:33:28.238Z,84.30
2019-03-31T01:35:59.067Z,84.30
2019-03-31T01:38:29.603Z,84.30
2019-03-31T01:41:00.117Z,84.20
2019-03-31T01:43:30.668Z,83.20
2019-03-31T01:46:01.722Z,84.00
2019-03-31T01:48:32.516Z,83.80
2019-03-31T01:51:03.964Z,83.70
2019-03-31T01:53:34.676Z,82.80
2019-03-31T01:56:05.559Z,82.10
2019-03-31T01:58:36.288Z,82.50
2019-03-31T02:01:08.308Z,82.50
2019-03-31T02:03:38.798Z,83.40
2019-03-31T02:06:10.550Z,81.10
2019-03-31T02:08:41.471Z,82.90
2019-03-31T02:11:12.143Z,83.20
2019-03-31T02:13:42.958Z,81.30
2019-03-31T02:16:13.672Z,84.00
2019-03-31T02:18:44.492Z,85.30
2019-03-31T02:21:15.233Z,86.80
2019-03-31T02:23:46.975Z,87.30
2019-03-31T02:26:17.577Z,86.40
2019-03-31T02:28:48.073Z,84.70
2019-03-31T02:31:18.606Z,84.30
2019-03-31T02:33:49.469Z,85.50
2019-03-31T02:36:20.171Z,85.20
2019-03-31T02:38:50.975Z,83.40
2019-03-31T02:41:21.631Z,83.10
2019-03-31T02:43:52.449Z,86.10
2019-03-31T02:46:23.296Z,86.30
2019-03-31T02:48:53.837Z,86.70
2019-03-31T02:51:24.645Z,87.80
2019-03-31T02:53:55.728Z,88.70
2019-03-31T02:56:26.629Z,88.90
2019-03-31T02:58:57.331Z,87.20
2019-03-31T03:01:57.932Z,86.00
2019-03-31T03:04:28.456Z,87.80
2019-03-31T03:06:59.316Z,88.00
2019-03-31T03:09:30.003Z,88.60
2019-03-31T03:12:00.691Z,88.60
2019-03-31T03:14:32.759Z,89.60
2019-03-31T03:17:03.575Z,90.30
2019-03-31T03:19:34.365Z,89.90
2019-03-31T03:22:05.117Z,89.40
2019-03-31T03:24:35.859Z,89.30
2019-03-31T03:27:06.386Z,88.90
2019-03-31T03:29:36.872Z,88.70
2019-03-31T03:32:07.921Z,89.80
2019-03-31T03:34:38.755Z,89.50
2019-03-31T03:37:10.566Z,88.60
2019-03-31T03:39:41.375Z,86.80
2019-03-31T03:42:11.979Z,87.40
2019-03-31T03:44:42.787Z,87.50
2019-03-31T03:47:13.287Z,88.80
2019-03-31T03:49:44.118Z,87.10
2019-03-31T03:52:14.814Z,87.90
2019-03-31T03:54:45.489Z,88.10
2019-03-31T03:57:15.991Z,87.80
2019-03-31T03:59:46.544Z,87.70
2019-03-31T04:02:17.222Z,87.50
2019-03-31T04:04:47.923Z,84.20
2019-03-31T04:07:18.472Z,84.50
2019-03-31T04:09:49.348Z,86.30
2019-03-31T04:12:20.053Z,87.50
2019-03-31T04:14:50.785Z,88.70
2019-03-31T04:17:21.543Z,90.20
2019-03-31T04:19:52.266Z,90.70
2019-03-31T04:22:22.975Z,90.90
2019-03-31T04:24:53.824Z,90.70
2019-03-31T04:27:24.363Z,90.40
2019-03-31T04:29:55.057Z,90.70
2019-03-31T04:32:25.742Z,90.90
2019-03-31T04:34:56.488Z,90.60
2019-03-31T04:37:27.314Z,90.00
2019-03-31T04:39:58.131Z,90.10
2019-03-31T04:42:28.708Z,88.50
2019-03-31T04:44:59.538Z,87.20
2019-03-31T04:47:30.245Z,89.60
2019-03-31T04:50:00.984Z,90.70
2019-03-31T04:52:34.579Z,90.60
2019-03-31T04:55:05.431Z,90.90
2019-03-31T04:57:35.946Z,91.00
2019-03-31T05:00:06.659Z,91.20
2019-03-31T05:02:37.419Z,91.40
2019-03-31T05:05:08.297Z,91.10
2019-03-31T05:07:39.126Z,91.20
2019-03-31T05:10:09.888Z,91.20
2019-03-31T05:12:40.785Z,91.00
2019-03-31T05:15:11.677Z,90.90
2019-03-31T05:17:42.290Z,90.40
2019-03-31T05:20:13.216Z,90.00
2019-03-31T05:22:44.038Z,90.40
2019-03-31T05:25:14.578Z,90.80
2019-03-31T05:27:45.344Z,90.80
2019-03-31T05:30:16.109Z,90.70
2019-03-31T05:32:46.892Z,90.70
2019-03-31T05:35:17.672Z,91.20
2019-03-31T05:37:51.345Z,91.30
2019-03-31T05:40:20.836Z,91.40
2019-03-31T05:42:51.460Z,91.50
2019-03-31T05:45:22.328Z,91.40
2019-03-31T05:47:53.166Z,91.40
2019-03-31T05:50:23.938Z,91.50
2019-03-31T05:52:54.864Z,91.70
2019-03-31T05:55:25.468Z,91.60
2019-03-31T05:57:56.213Z,91.50
2019-03-31T06:00:47.448Z,91.30
2019-03-31T06:03:17.985Z,90.90
2019-03-31T06:05:48.990Z,90.50
2019-03-31T06:08:20.868Z,90.50
2019-03-31T06:10:51.478Z,90.50
2019-03-31T06:13:22.211Z,90.00
2019-03-31T06:15:53.066Z,90.00
2019-03-31T06:18:23.797Z,90.20
2019-03-31T06:20:54.583Z,90.40
2019-03-31T06:23:25.367Z,90.30
2019-03-31T06:25:55.875Z,90.00
2019-03-31T06:28:26.760Z,89.80
2019-03-31T06:30:57.395Z,89.40
2019-03-31T06:33:27.931Z,89.50
2019-03-31T06:35:58.755Z,90.20
2019-03-31T06:38:29.755Z,91.20
2019-03-31T06:41:03.771Z,90.90
2019-03-31T06:43:34.363Z,91.30
2019-03-31T06:46:04.935Z,91.00
2019-03-31T06:48:35.745Z,91.00
2019-03-31T06:51:06.571Z,91.10
2019-03-31T06:53:37.319Z,90.90
2019-03-31T06:56:08.036Z,90.60
2019-03-31T06:58:38.948Z,90.50
2019-03-31T07:01:09.840Z,90.60
2019-03-31T07:03:40.650Z,90.60
2019-03-31T07:06:11.533Z,91.10
2019-03-31T07:08:42.422Z,91.20
2019-03-31T07:11:13.084Z,91.60
2019-03-31T07:13:43.964Z,91.00
2019-03-31T07:16:14.901Z,90.70
2019-03-31T07:18:45.666Z,89.80
2019-03-31T07:21:16.583Z,87.10
2019-03-31T07:23:47.391Z,86.50
2019-03-31T07:26:18.206Z,85.50
2019-03-31T07:28:48.892Z,85.60
2019-03-31T07:31:19.687Z,85.10
2019-03-31T07:33:50.586Z,86.10
2019-03-31T07:36:21.464Z,87.90
2019-03-31T07:38:52.290Z,85.80
2019-03-31T07:41:23.190Z,86.80
2019-03-31T07:43:54.106Z,87.50
2019-03-31T07:46:25.360Z,85.60
2019-03-31T07:48:56.324Z,87.20
2019-03-31T07:51:27.036Z,85.50
2019-03-31T07:53:57.789Z,85.40
2019-03-31T07:56:28.580Z,84.90
2019-03-31T07:58:59.462Z,85.10
2019-03-31T08:01:30.432Z,84.00
2019-03-31T08:04:01.080Z,83.80
2019-03-31T08:06:31.667Z,83.80
2019-03-31T08:09:02.353Z,83.50
2019-03-31T08:11:33.212Z,83.10
2019-03-31T08:14:03.763Z,82.80
2019-03-31T08:16:34.324Z,83.20
2019-03-31T08:19:04.833Z,84.10
2019-03-31T08:21:35.674Z,82.50
2019-03-31T08:24:06.760Z,81.90
2019-03-31T08:26:37.551Z,82.90
2019-03-31T08:29:08.131Z,80.40
2019-03-31T08:31:39.040Z,82.20
2019-03-31T08:34:09.682Z,79.90
2019-03-31T08:36:40.570Z,79.30
2019-03-31T08:39:11.069Z,79.80
2019-03-31T08:41:41.652Z,77.80
2019-03-31T08:44:12.341Z,77.90
2019-03-31T08:46:42.864Z,78.80
2019-03-31T08:49:13.492Z,76.00
2019-03-31T08:51:44.089Z,77.30
2019-03-31T08:54:14.700Z,75.50
2019-03-31T08:56:45.246Z,76.30
2019-03-31T08:59:15.830Z,74.70
2019-03-31T09:01:46.589Z,75.90
2019-03-31T09:04:20.194Z,73.70
2019-03-31T09:06:50.986Z,74.50
2019-03-31T09:09:21.533Z,72.50
2019-03-31T09:11:52.387Z,71.30
2019-03-31T09:14:22.961Z,73.00
2019-03-31T09:16:53.836Z,72.10
2019-03-31T09:19:24.625Z,72.50
2019-03-31T09:21:55.493Z,68.60
2019-03-31T09:24:26.095Z,68.30
2019-03-31T09:26:57.011Z,69.40
2019-03-31T09:29:27.879Z,69.40
2019-03-31T09:31:58.589Z,67.50
2019-03-31T09:34:29.113Z,66.30
2019-03-31T09:37:00.021Z,66.40
2019-03-31T09:39:31.312Z,66.20
2019-03-31T09:42:02.087Z,65.60
2019-03-31T09:44:32.830Z,63.60
2019-03-31T09:47:09.157Z,59.80
2019-03-31T09:49:40.330Z,61.80
2019-03-31T09:52:11.303Z,61.60
2019-03-31T09:54:41.933Z,59.70
2019-03-31T09:57:12.729Z,57.70
2019-03-31T09:59:43.687Z,58.50
2019-03-31T10:02:14.445Z,58.10
2019-03-31T10:04:45.287Z,56.60
2019-03-31T10:07:15.863Z,58.60
2019-03-31T10:09:46.619Z,59.60
2019-03-31T10:12:17.193Z,58.80
2019-03-31T10:14:47.983Z,58.40
2019-03-31T10:17:18.631Z,59.10
2019-03-31T10:19:49.249Z,56.80
2019-03-31T10:22:20.152Z,59.00
2019-03-31T10:24:50.955Z,58.50
2019-03-31T10:27:21.777Z,58.20
2019-03-31T10:29:52.292Z,55.70
2019-03-31T10:32:23.179Z,56.30
2019-03-31T10:34:54.023Z,58.00
2019-03-31T10:37:24.883Z,56.70
2019-03-31T10:39:55.545Z,55.60
2019-03-31T10:42:26.362Z,55.60
2019-03-31T10:44:59.371Z,57.30
2019-03-31T10:47:29.964Z,57.70
2019-03-31T10:50:00.835Z,58.10
2019-03-31T10:52:31.431Z,58.20
2019-03-31T10:55:02.282Z,56.00
2019-03-31T10:57:33.066Z,57.60
2019-03-31T11:00:03.995Z,57.10
2019-03-31T11:02:34.994Z,56.00
2019-03-31T11:05:05.901Z,57.30
2019-03-31T11:07:36.477Z,58.40
2019-03-31T11:10:07.201Z,57.30
2019-03-31T11:12:37.753Z,55.10
2019-03-31T11:15:09.261Z,53.10
2019-03-31T11:17:40.237Z,55.20
2019-03-31T11:20:10.869Z,57.60
2019-03-31T11:22:46.831Z,55.50
2019-03-31T11:25:21.328Z,53.50
2019-03-31T11:27:49.830Z,52.70
2019-03-31T11:30:20.373Z,53.50
2019-03-31T11:32:50.960Z,52.30
2019-03-31T11:35:21.661Z,53.70
2019-03-31T11:37:52.267Z,54.30
2019-03-31T11:40:22.977Z,53.30
2019-03-31T11:42:57.954Z,50.40
2019-03-31T11:45:28.545Z,49.60
2019-03-31T11:47:59.126Z,50.50
2019-03-31T11:50:29.694Z,49.70
2019-03-31T11:53:00.533Z,48.60
2019-03-31T11:55:31.059Z,50.60
2019-03-31T11:58:01.921Z,49.80
2019-03-31T12:00:34.809Z,48.60
2019-03-31T12:03:05.421Z,47.40
2019-03-31T12:05:36.164Z,49.50
2019-03-31T12:08:06.733Z,48.00
2019-03-31T12:10:37.350Z,48.80
2019-03-31T12:13:08.051Z,48.40
2019-03-31T12:15:38.828Z,48.50
2019-03-31T12:18:09.667Z,50.10
2019-03-31T12:20:40.237Z,47.30
2019-03-31T12:23:11.233Z,48.90
2019-03-31T12:25:42.025Z,50.70
2019-03-31T12:28:12.753Z,49.40
2019-03-31T12:30:43.519Z,47.20
2019-03-31T12:33:14.193Z,50.20
2019-03-31T12:35:44.983Z,48.30
2019-03-31T12:38:15.650Z,47.10
2019-03-31T12:40:46.184Z,44.10
2019-03-31T12:43:16.738Z,45.10
2019-03-31T12:45:47.384Z,45.60
2019-03-31T12:48:19.484Z,44.80
2019-03-31T12:50:50.112Z,46.20
2019-03-31T12:53:20.717Z,44.50
2019-03-31T12:55:59.930Z,45.70
2019-03-31T12:58:24.046Z,46.40
2019-03-31T13:00:54.800Z,44.00
2019-03-31T13:03:25.607Z,42.00
2019-03-31T13:05:56.171Z,44.30
2019-03-31T13:08:27.030Z,44.80
2019-03-31T13:10:57.547Z,45.00
2019-03-31T13:13:28.136Z,45.30
2019-03-31T13:15:58.722Z,45.10
2019-03-31T13:18:31.365Z,42.70
2019-03-31T13:21:02.024Z,44.50
2019-03-31T13:23:33.105Z,42.00
2019-03-31T13:26:03.761Z,43.80
2019-03-31T13:28:34.309Z,44.60
2019-03-31T13:31:04.839Z,43.80
2019-03-31T13:33:35.355Z,46.40
2019-03-31T13:36:06.060Z,42.40
2019-03-31T13:38:37.710Z,42.90
2019-03-31T13:41:08.292Z,43.30
2019-03-31T13:43:38.807Z,44.30
2019-03-31T13:46:09.335Z,41.80
2019-03-31T13:48:39.904Z,42.20
2019-03-31T13:51:11.525Z,41.90
2019-03-31T13:53:42.152Z,39.70
2019-03-31T13:56:13.337Z,41.10
2019-03-31T13:58:52.569Z,38.60
2019-03-31T14:01:17.107Z,38.30
2019-03-31T14:03:47.902Z,40.90
2019-03-31T14:06:18.695Z,39.80
2019-03-31T14:08:49.506Z,39.40
2019-03-31T14:11:21.724Z,39.20
2019-03-31T14:13:55.784Z,40.30
2019-03-31T14:16:30.414Z,39.60
2019-03-31T14:19:01.064Z,36.40
2019-03-31T14:21:31.879Z,36.30
2019-03-31T14:24:02.487Z,38.10
2019-03-31T14:26:33.228Z,40.00
2019-03-31T14:29:04.113Z,40.00
2019-03-31T14:31:34.826Z,37.80
2019-03-31T14:34:05.431Z,36.00
2019-03-31T14:36:36.089Z,37.40
2019-03-31T14:39:09.180Z,38.40
2019-03-31T14:41:41.158Z,42.10
2019-03-31T14:44:11.964Z,38.00
2019-03-31T14:46:42.802Z,37.50
2019-03-31T14:49:13.422Z,36.60
2019-03-31T14:51:44.250Z,37.50
2019-03-31T14:54:15.061Z,36.30
2019-03-31T14:56:45.611Z,38.70
2019-03-31T14:59:16.380Z,37.70
2019-03-31T15:01:46.993Z,37.60
2019-03-31T15:04:17.633Z,38.40
2019-03-31T15:06:48.340Z,37.60
2019-03-31T15:09:19.105Z,39.20
2019-03-31T15:11:49.938Z,36.30
2019-03-31T15:14:20.672Z,37.10
2019-03-31T15:16:51.353Z,38.50
2019-03-31T15:19:22.249Z,38.50
2019-03-31T15:21:53.052Z,36.20
2019-03-31T15:24:23.970Z,37.70
2019-03-31T15:26:54.816Z,39.40
2019-03-31T15:29:25.597Z,39.20
2019-03-31T15:31:56.344Z,37.50
2019-03-31T15:34:27.114Z,39.80
2019-03-31T15:36:57.905Z,38.00
2019-03-31T15:39:28.794Z,37.00
2019-03-31T15:41:59.486Z,38.90
2019-03-31T15:44:30.403Z,38.50
2019-03-31T15:47:01.143Z,36.90
2019-03-31T15:49:31.964Z,38.50
2019-03-31T15:52:02.724Z,38.00
2019-03-31T15:54:33.422Z,39.90
2019-03-31T15:57:04.175Z,39.80
2019-03-31T15:59:35.072Z,40.50
2019-03-31T16:02:05.861Z,38.30
2019-03-31T16:04:36.582Z,37.40
2019-03-31T16:07:07.479Z,40.20
2019-03-31T16:09:37.734Z,35.90
2019-03-31T16:12:08.080Z,40.10
2019-03-31T16:14:38.465Z,39.10
2019-03-31T16:17:08.689Z,42.20
2019-03-31T16:19:38.971Z,41.00
2019-03-31T16:22:09.235Z,41.80
2019-03-31T16:24:43.082Z,41.80
2019-03-31T16:27:13.460Z,41.10
2019-03-31T16:29:43.729Z,40.40
2019-03-31T16:32:14.101Z,42.00
2019-03-31T16:34:46.060Z,40.00
2019-03-31T16:37:16.065Z,43.50
2019-03-31T16:39:46.030Z,40.70
2019-03-31T16:42:16.304Z,43.30
2019-03-31T16:44:57.607Z,40.80
2019-03-31T16:47:18.328Z,43.10
2019-03-31T16:49:48.339Z,47.00
2019-03-31T16:52:18.391Z,42.70
2019-03-31T16:54:48.638Z,41.20
2019-03-31T16:57:18.838Z,43.60
2019-03-31T16:59:49.118Z,43.40
2019-03-31T17:02:19.273Z,43.60
2019-03-31T17:04:49.514Z,41.00
2019-03-31T17:07:19.823Z,46.30
2019-03-31T17:09:51.716Z,44.70
2019-03-31T17:12:22.144Z,43.60
2019-03-31T17:14:52.255Z,44.90
2019-03-31T17:17:22.409Z,46.80
2019-03-31T17:19:52.620Z,48.30
2019-03-31T17:22:22.829Z,49.70
2019-03-31T17:24:53.066Z,49.30
2019-03-31T17:27:23.292Z,50.00
2019-03-31T17:29:53.513Z,51.40
2019-03-31T17:32:23.781Z,52.60
2019-03-31T17:34:54.048Z,53.90
2019-03-31T17:37:24.303Z,56.10
2019-03-31T17:40:05.311Z,55.80
2019-03-31T17:42:26.181Z,57.00
2019-03-31T17:44:56.191Z,57.90
2019-03-31T17:47:26.169Z,59.10
2019-03-31T17:49:56.195Z,59.50
2019-03-31T17:52:26.155Z,60.60
2019-03-31T17:54:56.060Z,60.90
2019-03-31T17:57:26.067Z,61.10
2019-03-31T17:59:56.359Z,61.70
2019-03-31T18:02:26.699Z,62.40
2019-03-31T18:04:56.788Z,63.10
2019-03-31T18:07:26.960Z,62.80
2019-03-31T18:09:57.172Z,64.30
2019-03-31T18:12:27.567Z,65.00
2019-03-31T18:14:57.945Z,66.10
2019-03-31T18:17:27.938Z,65.10
2019-03-31T18:19:58.602Z,65.00
2019-03-31T18:22:28.659Z,64.50
2019-03-31T18:24:58.919Z,65.40
2019-03-31T18:27:29.248Z,66.00
2019-03-31T18:29:59.247Z,68.20
2019-03-31T18:32:29.518Z,68.00
2019-03-31T18:34:59.489Z,66.90
2019-03-31T18:37:29.664Z,66.30
2019-03-31T18:39:59.945Z,66.70
2019-03-31T18:42:29.967Z,67.00
2019-03-31T18:44:59.935Z,66.80
2019-03-31T18:47:29.989Z,66.90
2019-03-31T18:49:59.977Z,67.60
2019-03-31T18:52:29.950Z,68.20
2019-03-31T18:55:10.023Z,68.20
2019-03-31T18:58:10.857Z,67.30
2019-03-31T19:00:56.809Z,66.80
2019-03-31T19:03:33.610Z,66.90
2019-03-31T19:06:21.555Z,67.40
2019-03-31T19:09:16.373Z,68.80
2019-03-31T19:12:14.463Z,69.30
2019-03-31T19:15:01.850Z,70.00
2019-03-31T19:18:03.256Z,70.70
2019-03-31T19:21:10.546Z,71.20
2019-03-31T19:23:48.877Z,71.80
2019-03-31T19:26:48.535Z,71.90
2019-03-31T19:29:36.986Z,71.20
2019-03-31T19:32:24.708Z,71.00
2019-03-31T19:35:25.770Z,72.10
2019-03-31T19:38:16.963Z,71.60
2019-03-31T19:41:06.058Z,72.40
2019-03-31T19:43:57.983Z,72.60
2019-03-31T19:47:02.245Z,71.40
2019-03-31T19:49:54.187Z,69.50
2019-03-31T19:52:49.011Z,68.50
2019-03-31T19:55:38.991Z,68.50
2019-03-31T19:58:33.407Z,68.50
2019-03-31T20:01:22.554Z,68.10
2019-03-31T20:04:09.998Z,69.40
2019-03-31T20:07:02.216Z,68.30
2019-03-31T20:09:51.100Z,67.50
2019-03-31T20:12:32.073Z,67.90
2019-03-31T20:15:23.806Z,68.00
2019-03-31T20:18:21.875Z,69.70
2019-03-31T20:21:31.059Z,69.00
2019-03-31T20:24:13.215Z,69.30
2019-03-31T20:27:20.465Z,69.70
2019-03-31T20:30:05.610Z,70.10
2019-03-31T20:32:51.266Z,70.50
2019-03-31T20:35:52.546Z,69.80
2019-03-31T20:38:44.471Z,69.30
2019-03-31T20:41:25.862Z,69.20
2019-03-31T20:43:55.982Z,68.80
2019-03-31T20:46:26.212Z,69.00
2019-03-31T20:48:56.211Z,67.00
2019-03-31T20:51:26.223Z,66.40
2019-03-31T20:53:56.233Z,67.00
2019-03-31T20:56:26.705Z,66.90
2019-03-31T20:58:56.746Z,66.20
2019-03-31T21:01:27.072Z,64.20
2019-03-31T21:03:57.250Z,64.80
2019-03-31T21:06:27.198Z,63.60
2019-03-31T21:08:57.253Z,61.00
2019-03-31T21:11:27.233Z,61.40
2019-03-31T21:13:57.407Z,59.40
2019-03-31T21:16:30.855Z,58.40
2019-03-31T21:19:00.875Z,59.00
2019-03-31T21:21:31.118Z,58.00
2019-03-31T21:24:01.273Z,57.70
2019-03-31T21:26:31.479Z,57.30
2019-03-31T21:29:02.833Z,56.60
2019-03-31T21:31:33.237Z,55.40
2019-03-31T21:34:03.296Z,55.10
2019-03-31T21:36:33.391Z,54.80
2019-03-31T21:39:03.988Z,54.70
2019-03-31T21:41:34.045Z,54.30
2019-03-31T21:44:04.353Z,54.20
2019-03-31T21:46:34.722Z,54.40
2019-03-31T21:49:04.992Z,54.40
2019-03-31T21:51:35.190Z,54.10
2019-03-31T21:54:05.225Z,53.60
2019-03-31T21:56:35.346Z,53.90
2019-03-31T21:59:05.625Z,53.70
2019-03-31T22:01:35.976Z,53.50
2019-03-31T22:04:06.000Z,53.40
2019-03-31T22:06:35.977Z,53.40
2019-03-31T22:09:09.467Z,52.90
2019-03-31T22:11:39.793Z,53.10
2019-03-31T22:14:10.611Z,53.80
2019-03-31T22:16:41.166Z,53.60
2019-03-31T22:19:11.474Z,53.10
2019-03-31T22:21:41.452Z,53.10
2019-03-31T22:24:11.696Z,53.40
2019-03-31T22:26:41.888Z,52.50
2019-03-31T22:29:12.165Z,53.50
2019-03-31T22:31:42.471Z,53.30
2019-03-31T22:34:12.500Z,53.40
2019-03-31T22:36:42.718Z,53.80
2019-03-31T22:39:12.901Z,53.70
2019-03-31T22:41:43.022Z,53.30
2019-03-31T22:44:13.214Z,53.70
2019-03-31T22:46:53.679Z,54.00
2019-03-31T22:49:15.438Z,53.40
2019-03-31T22:51:45.609Z,53.20
2019-03-31T22:54:15.674Z,53.30
2019-03-31T22:56:45.935Z,53.40
2019-03-31T22:59:16.084Z,52.80
2019-03-31T23:01:46.376Z,52.90
2019-03-31T23:04:16.363Z,52.80
2019-03-31T23:06:46.659Z,52.40
2019-03-31T23:09:16.910Z,52.30
2019-03-31T23:11:47.266Z,52.30
2019-03-31T23:14:17.606Z,52.70
2019-03-31T23:16:47.859Z,52.90
2019-03-31T23:19:18.013Z,53.20
2019-03-31T23:21:48.197Z,53.10
2019-03-31T23:24:18.613Z,53.50
2019-03-31T23:26:48.766Z,53.50
2019-03-31T23:29:19.965Z,54.10
2019-03-31T23:31:50.300Z,54.20
2019-03-31T23:34:20.567Z,54.10
2019-03-31T23:36:50.807Z,55.00
2019-03-31T23:39:21.075Z,55.10
2019-03-31T23:41:51.481Z,55.00
2019-03-31T23:44:21.481Z,55.10
2019-03-31T23:46:51.824Z,55.20
2019-03-31T23:49:21.807Z,55.50
2019-03-31T23:51:52.059Z,55.80
2019-03-31T23:54:22.096Z,56.20
2019-03-31T23:56:52.170Z,56.80
2019-03-31T23:59:22.530Z,57.00
